Time,TemperatureF,DewpointF,PressureIn,WindDirection,WindDirectionDegrees,WindSpeedMPH,WindSpeedGustMPH,Humidity,HourlyPrecipIn,Conditions,Clouds,dailyrainin,SolarRadiationWatts/m^2,SoftwareType,DateUTC
2013-08-02 00:02:00,45.0,41.0,-100.00,South,174,11.0,45.0,85,0.01,,,0.21,0.000000,,2013-08-02 06:02:00,
2013-08-02 00:33:00,44.0,42.0,-100.00,ESE,120,15.0,40.0,94,0.12,,,0.33,0.000000,,2013-08-02 06:33:00,
2013-08-02 00:43:00,44.0,42.0,-100.00,ESE,120,15.0,40.0,94,0.12,,,0.33,0.000000,,2013-08-02 06:43:00,
2013-08-02 00:52:00,44.0,42.0,-100.00,ESE,120,15.0,40.0,94,0.12,,,0.33,0.000000,,2013-08-02 06:52:00,
2013-08-02 01:02:00,44.0,42.0,-100.00,ESE,120,15.0,40.0,94,0.12,,,0.33,0.000000,,2013-08-02 07:02:00,
2013-08-02 01:33:00,44.0,35.0,-100.00,South,173,16.0,29.0,70,0.00,,,0.33,0.000000,,2013-08-02 07:33:00,
2013-08-02 01:44:00,44.0,35.0,-100.00,South,173,16.0,29.0,70,0.00,,,0.33,0.000000,,2013-08-02 07:44:00,
2013-08-02 01:53:00,44.0,35.0,-100.00,South,173,16.0,29.0,70,0.00,,,0.33,0.000000,,2013-08-02 07:53:00,
2013-08-02 02:02:00,44.0,35.0,-100.00,South,173,16.0,29.0,70,0.00,,,0.33,0.000000,,2013-08-02 08:02:00,
2013-08-02 02:33:00,44.0,39.0,-100.00,South,191,15.0,19.0,83,0.00,,,0.33,0.000000,,2013-08-02 08:33:00,
2013-08-02 02:43:00,44.0,39.0,-100.00,South,191,15.0,19.0,83,0.00,,,0.33,0.000000,,2013-08-02 08:43:00,
2013-08-02 02:54:00,44.0,39.0,-100.00,South,191,15.0,19.0,83,0.00,,,0.33,0.000000,,2013-08-02 08:54:00,
2013-08-02 03:02:00,44.0,39.0,-100.00,South,191,15.0,19.0,83,0.00,,,0.33,0.000000,,2013-08-02 09:02:00,
2013-08-02 03:33:00,44.0,39.0,-100.00,SSW,206,10.0,20.0,84,0.00,,,0.33,0.000000,,2013-08-02 09:33:00,
2013-08-02 03:44:00,44.0,39.0,-100.00,SSW,206,10.0,20.0,84,0.00,,,0.33,0.000000,,2013-08-02 09:44:00,
2013-08-02 03:53:00,44.0,39.0,-100.00,SSW,206,10.0,20.0,84,0.00,,,0.33,0.000000,,2013-08-02 09:53:00,
2013-08-02 04:02:00,44.0,39.0,-100.00,SSW,206,10.0,20.0,84,0.00,,,0.33,0.000000,,2013-08-02 10:02:00,
2013-08-02 04:33:00,44.0,39.0,-100.00,WSW,243,10.0,13.0,81,0.00,,,0.33,0.000000,,2013-08-02 10:33:00,
2013-08-02 04:43:00,44.0,39.0,-100.00,WSW,243,10.0,13.0,81,0.00,,,0.33,0.000000,,2013-08-02 10:43:00,
2013-08-02 04:52:00,44.0,39.0,-100.00,WSW,243,10.0,13.0,81,0.00,,,0.33,0.000000,,2013-08-02 10:52:00,
2013-08-02 05:02:00,44.0,39.0,-100.00,WSW,243,10.0,13.0,81,0.00,,,0.33,0.000000,,2013-08-02 11:02:00,
2013-08-02 05:33:00,43.0,39.0,-100.00,WSW,248,9.0,15.0,85,0.00,,,0.33,0.000000,,2013-08-02 11:33:00,
2013-08-02 05:43:00,43.0,39.0,-100.00,WSW,248,9.0,15.0,85,0.00,,,0.33,0.000000,,2013-08-02 11:43:00,
2013-08-02 05:52:00,43.0,39.0,-100.00,WSW,248,9.0,15.0,85,0.00,,,0.33,0.000000,,2013-08-02 11:52:00,
2013-08-02 06:02:00,43.0,39.0,-100.00,WSW,248,9.0,15.0,85,0.00,,,0.33,0.000000,,2013-08-02 12:02:00,
2013-08-02 06:33:00,43.0,39.0,-100.00,SW,231,12.0,16.0,85,0.00,,,0.33,0.000000,,2013-08-02 12:33:00,
2013-08-02 06:43:00,43.0,39.0,-100.00,SW,231,12.0,16.0,85,0.00,,,0.33,0.000000,,2013-08-02 12:43:00,
2013-08-02 06:52:00,43.0,39.0,-100.00,SW,231,12.0,16.0,85,0.00,,,0.33,0.000000,,2013-08-02 12:52:00,
2013-08-02 07:02:00,43.0,39.0,-100.00,SW,231,12.0,16.0,85,0.00,,,0.33,0.000000,,2013-08-02 13:02:00,
2013-08-02 07:33:00,43.0,39.0,-100.00,South,187,8.0,13.0,86,0.00,,,0.33,28.000000,,2013-08-02 13:33:00,
2013-08-02 07:43:00,43.0,39.0,-100.00,South,187,8.0,13.0,86,0.00,,,0.33,28.000000,,2013-08-02 13:43:00,
2013-08-02 07:52:00,43.0,39.0,-100.00,South,187,8.0,13.0,86,0.00,,,0.33,28.000000,,2013-08-02 13:52:00,
2013-08-02 08:02:00,43.0,39.0,-100.00,South,187,8.0,13.0,86,0.00,,,0.33,28.000000,,2013-08-02 14:02:00,
2013-08-02 08:43:00,44.0,39.0,-100.00,SSW,197,11.0,15.0,82,0.00,,,0.33,187.000000,,2013-08-02 14:43:00,
2013-08-02 08:53:00,44.0,39.0,-100.00,SSW,197,11.0,15.0,82,0.00,,,0.33,187.000000,,2013-08-02 14:53:00,
2013-08-02 09:03:00,44.0,39.0,-100.00,SSW,197,11.0,15.0,82,0.00,,,0.33,187.000000,,2013-08-02 15:03:00,
2013-08-02 09:43:00,45.0,39.0,-100.00,SSW,194,6.0,15.0,80,0.00,,,0.33,218.000000,,2013-08-02 15:43:00,
2013-08-02 09:52:00,45.0,39.0,-100.00,SSW,194,6.0,15.0,80,0.00,,,0.33,218.000000,,2013-08-02 15:52:00,
2013-08-02 10:02:00,45.0,39.0,-100.00,SSW,194,6.0,15.0,80,0.00,,,0.33,218.000000,,2013-08-02 16:02:00,
2013-08-02 10:32:00,46.0,41.0,-100.00,South,191,7.0,11.0,82,0.00,,,0.33,216.000000,,2013-08-02 16:32:00,
2013-08-02 10:43:00,46.0,41.0,-100.00,South,191,7.0,11.0,82,0.00,,,0.33,216.000000,,2013-08-02 16:43:00,
2013-08-02 10:52:00,46.0,41.0,-100.00,South,191,7.0,11.0,82,0.00,,,0.33,216.000000,,2013-08-02 16:52:00,
2013-08-02 11:02:00,46.0,41.0,-100.00,South,191,7.0,11.0,82,0.00,,,0.33,216.000000,,2013-08-02 17:02:00,
2013-08-02 11:43:00,51.0,42.0,-100.00,SW,221,6.0,11.0,71,0.00,,,0.33,649.000000,,2013-08-02 17:43:00,
2013-08-02 11:52:00,51.0,42.0,-100.00,SW,221,6.0,11.0,71,0.00,,,0.33,649.000000,,2013-08-02 17:52:00,
2013-08-02 12:02:00,51.0,42.0,-100.00,SW,221,6.0,11.0,71,0.00,,,0.33,649.000000,,2013-08-02 18:02:00,
2013-08-02 12:32:00,53.0,42.0,-100.00,WSW,242,5.0,10.0,65,0.00,,,0.33,807.000000,,2013-08-02 18:32:00,
2013-08-02 12:43:00,53.0,42.0,-100.00,WSW,242,5.0,10.0,65,0.00,,,0.33,807.000000,,2013-08-02 18:43:00,
2013-08-02 12:52:00,53.0,42.0,-100.00,WSW,242,5.0,10.0,65,0.00,,,0.33,807.000000,,2013-08-02 18:52:00,
2013-08-02 13:02:00,53.0,42.0,-100.00,WSW,242,5.0,10.0,65,0.00,,,0.33,807.000000,,2013-08-02 19:02:00,
2013-08-02 13:32:00,54.0,41.0,-100.00,WSW,241,7.0,12.0,62,0.00,,,0.24,823.000000,,2013-08-02 19:32:00,
2013-08-02 13:43:00,54.0,41.0,-100.00,WSW,241,7.0,12.0,62,0.00,,,0.24,823.000000,,2013-08-02 19:43:00,
2013-08-02 13:52:00,54.0,41.0,-100.00,WSW,241,7.0,12.0,62,0.00,,,0.24,823.000000,,2013-08-02 19:52:00,
2013-08-02 14:02:00,54.0,41.0,-100.00,WSW,241,7.0,12.0,62,0.00,,,0.24,823.000000,,2013-08-02 20:02:00,
2013-08-02 14:43:00,58.0,43.0,-100.00,NW,306,10.0,15.0,58,0.00,,,0.24,834.000000,,2013-08-02 20:43:00,
2013-08-02 14:52:00,58.0,43.0,-100.00,NW,306,10.0,15.0,58,0.00,,,0.24,834.000000,,2013-08-02 20:52:00,
2013-08-02 15:02:00,58.0,43.0,-100.00,NW,306,10.0,15.0,58,0.00,,,0.24,834.000000,,2013-08-02 21:02:00,
2013-08-02 16:32:00,57.0,44.0,-100.00,WNW,291,15.0,24.0,62,-99.99,,,0.16,921.000000,,2013-08-02 22:32:00,
2013-08-02 16:43:00,57.0,44.0,-100.00,WNW,291,15.0,24.0,62,-99.99,,,0.16,921.000000,,2013-08-02 22:43:00,
2013-08-02 16:52:00,57.0,44.0,-100.00,WNW,291,15.0,24.0,62,-99.99,,,0.16,921.000000,,2013-08-02 22:52:00,
2013-08-02 17:02:00,57.0,44.0,-100.00,WNW,291,15.0,24.0,62,-99.99,,,0.16,921.000000,,2013-08-02 23:02:00,
2013-08-02 17:32:00,58.0,42.0,-100.00,WNW,285,12.0,21.0,55,0.00,,,0.16,821.000000,,2013-08-02 23:32:00,
2013-08-02 17:44:00,58.0,42.0,-100.00,WNW,285,12.0,21.0,55,0.00,,,0.16,821.000000,,2013-08-02 23:44:00,
2013-08-02 17:53:00,58.0,42.0,-100.00,WNW,285,12.0,21.0,55,0.00,,,0.16,821.000000,,2013-08-02 23:53:00,
2013-08-02 18:02:00,58.0,42.0,-100.00,WNW,285,12.0,21.0,55,0.00,,,0.16,821.000000,,2013-08-03 00:02:00,
2013-08-02 18:43:00,59.0,43.0,-100.00,WNW,299,12.0,20.0,56,0.00,,,0.16,314.000000,,2013-08-03 00:43:00,
2013-08-02 18:52:00,59.0,43.0,-100.00,WNW,299,12.0,20.0,56,0.00,,,0.16,314.000000,,2013-08-03 00:52:00,
2013-08-02 19:02:00,59.0,43.0,-100.00,WNW,299,12.0,20.0,56,0.00,,,0.16,314.000000,,2013-08-03 01:02:00,
2013-08-02 19:43:00,56.0,38.0,-100.00,WNW,286,16.0,25.0,51,0.00,,,0.16,76.000000,,2013-08-03 01:43:00,
2013-08-02 19:53:00,56.0,38.0,-100.00,WNW,286,16.0,25.0,51,0.00,,,0.16,76.000000,,2013-08-03 01:53:00,
2013-08-02 20:02:00,56.0,38.0,-100.00,WNW,286,16.0,25.0,51,0.00,,,0.16,76.000000,,2013-08-03 02:02:00,
2013-08-02 20:43:00,53.0,39.0,-100.00,WNW,296,19.0,26.0,58,0.00,,,0.16,90.000000,,2013-08-03 02:43:00,
2013-08-02 20:52:00,53.0,39.0,-100.00,WNW,296,19.0,26.0,58,0.00,,,0.16,90.000000,,2013-08-03 02:52:00,
2013-08-02 21:02:00,53.0,39.0,-100.00,WNW,296,19.0,26.0,58,0.00,,,0.16,90.000000,,2013-08-03 03:02:00,
2013-08-02 21:32:00,49.0,40.0,-100.00,NNW,342,10.0,24.0,72,0.00,,,0.16,59.000000,,2013-08-03 03:32:00,
2013-08-02 21:43:00,49.0,40.0,-100.00,NNW,342,10.0,24.0,72,0.00,,,0.16,59.000000,,2013-08-03 03:43:00,
2013-08-02 21:53:00,49.0,40.0,-100.00,NNW,342,10.0,24.0,72,0.00,,,0.16,59.000000,,2013-08-03 03:53:00,
2013-08-02 22:02:00,49.0,40.0,-100.00,NNW,342,10.0,24.0,72,0.00,,,0.16,59.000000,,2013-08-03 04:02:00,
2013-08-02 22:43:00,47.0,39.0,-100.00,North,354,5.0,16.0,74,0.00,,,0.16,0.000000,,2013-08-03 04:43:00,
2013-08-02 22:53:00,47.0,39.0,-100.00,North,354,5.0,16.0,74,0.00,,,0.16,0.000000,,2013-08-03 04:53:00,
2013-08-02 23:02:00,47.0,39.0,-100.00,North,354,5.0,16.0,74,0.00,,,0.16,0.000000,,2013-08-03 05:02:00,
2013-08-02 23:32:00,47.0,40.0,-100.00,North,359,6.0,11.0,76,0.00,,,0.15,0.000000,,2013-08-03 05:32:00,
2013-08-02 23:42:00,47.0,40.0,-100.00,North,359,6.0,11.0,76,0.00,,,0.15,0.000000,,2013-08-03 05:42:00,
2013-08-02 23:52:00,47.0,40.0,-100.00,North,359,6.0,11.0,76,0.00,,,0.15,0.000000,,2013-08-03 05:52:00,